EKCH Airport Information

Runway Information
Runway 04L Length 11811 ft width 148 ft
Elevation 13 ft Threshold 0 ft Heading 41
Runway 22R Length 11811 ft Width 148 ft
Elevation 14 ft Threshold 1967 ft Heading 221
Runway 04R Length 10827 ft width 148 ft
Elevation 12 ft Threshold 0 ft Heading 41
Runway 22L Length 10827 ft Width 148 ft
Elevation 8 ft Threshold 0 ft Heading 221
Runway 12 Length 10072 ft width 148 ft
Elevation 13 ft Threshold 2313 ft Heading 123
Runway 30 Length 10072 ft Width 148 ft
Elevation 8 ft Threshold 886 ft Heading 303
Airport Frequencies
Type APP Name Kastrup Ar Frequency 118.45 MHZ
Type APP Name Copenhagen Frequency 119.8 MHZ
Type APP Name Kastrup Fi Frequency 120.2 MHZ
Type ATIS Name Kastrup Ar Frequency 122.75 MHZ
Type ATIS Name Kastrup De Frequency 122.85 MHZ
Type DEL Name Kastrup Cl Frequency 119.9 MHZ
Type DEP Name Kastrup De Frequency 120.25 MHZ
Type DEP Name Kastrup De Frequency 124.975 MHZ
Type GND Name Kastrup Ap Frequency 121.625 MHZ
Type GND Name Kastrup Ap Frequency 121.725 MHZ
Type GND Name Kastrup Ap Frequency 121.9 MHZ
Type TWR Name Kastrup To Frequency 118.1 MHZ
Type TWR Name Kastrup To Frequency 118.575 MHZ
Type TWR Name Kastrup To Frequency 118.7 MHZ
Type TWR Name Kastrup To Frequency 119.35 MHZ
Type TWR Name Kastrup To Frequency 121.825 MHZ
Airport Navaids
Type VOR-DME Name Kastrup Frequency 112500 KHZ
Airport Weather Information & NOTAM
ADDS - METARS form results

(1739 UTC 16 April 2021)
Data provider http://aviationweather.gov/metar/data/
 
METAR text: EKCH 161720Z AUTO 35011KT 9999 OVC066/// 09/M01 Q1026 NOSIG
Conditions at: EKCH (COPENHAGEN/KASTR, DK) observed 1720 UTC 16 April 2021
Temperature: 9.0°C (48°F)
Dewpoint: -1.0°C (30°F) [RH = 49%]
Pressure (altimeter): 30.30 inches Hg (1026.0 mb)
Winds: from the N (350 degrees) at 13 MPH (11 knots; 5.7 m/s)
Visibility: 6 or more miles (10+ km)
Ceiling: 6600 feet AGL
Clouds: overcast cloud deck at 6600 feet AGL
Weather: no significant weather observed at this time

METAR text: EKCH 161650Z AUTO 35014KT 9999 BKN075/// BKN087/// BKN110/// 09/M01 Q1026 NOSIG
Conditions at: EKCH (COPENHAGEN/KASTR, DK) observed 1650 UTC 16 April 2021
Temperature: 9.0°C (48°F)
Dewpoint: -1.0°C (30°F) [RH = 49%]
Pressure (altimeter): 30.30 inches Hg (1026.0 mb)
Winds: from the N (350 degrees) at 16 MPH (14 knots; 7.2 m/s)
Visibility: 6 or more miles (10+ km)
Ceiling: 7500 feet AGL
Clouds: broken clouds at 7500 feet AGL
broken clouds at 8700 feet AGL
broken clouds at 11000 feet AGL
Weather: no significant weather observed at this time

Forecast for: EKCH (COPENHAGEN/KASTR, DK)
Text: TAF EKCH 161708Z 1618/1718 01012KT 9999 FEW045
Forecast period: 1800 UTC 16 April 2021 to 1800 UTC 17 April 2021
Forecast type: FROM: standard forecast or significant change
Winds: from the N (10 degrees) at 14 MPH (12 knots; 6.2 m/s)
Visibility: 6 or more miles (10+ km)
Ceiling: at least 12,000 feet AGL
Clouds: few clouds at 4500 feet AGL
Weather: no significant weather forecast for this period